Fort Vermilion, Canada
Current Conditions -  °F | °C
As of 1:21 PM on Wednesday 26 Nov 2014 (Local Time) from CYOJ Reporting Station
Light Snow Light Snow  
Wind Chill: -9°   Ceiling: 2600
Heat Index:   Visibility: 10mi
Dew Point:   Wind: 12mph
Humidity: 85%   Direction: 340°NNW
Pressure: 30.27"   Gusts: NA
Location:  58.4°N, 116°W
Report Text: CYOJ 262021Z 34010KT 10SM -SN SCT014 OVC026 M14/M16 A3027 RMK SC3SC5 SLP286
Loading
Personal Weather Stations






























Interactive Weather Map New forecast layout! Learn more

10-Day Weather Forecast

Advertisements
Track Severe Weather on mobile